createdAt,value
2019-05-17T00:04:12.285Z,100840.73
2019-05-17T00:09:17.411Z,100835.38
2019-05-17T00:14:19.617Z,100834.23
2019-05-17T00:19:22.340Z,100823.10
2019-05-17T00:24:26.512Z,100828.47
2019-05-17T00:29:29.611Z,100816.44
2019-05-17T00:34:32.407Z,100812.73
2019-05-17T00:39:36.654Z,100799.13
2019-05-17T00:44:39.799Z,100795.97
2019-05-17T00:49:42.535Z,100793.58
2019-05-17T00:54:46.944Z,100789.87
2019-05-17T00:59:49.871Z,100793.05
2019-05-17T01:04:52.591Z,100794.72
2019-05-17T01:09:56.568Z,100787.13
2019-05-17T01:14:59.592Z,100772.19
2019-05-17T01:20:02.341Z,100764.51
2019-05-17T01:25:06.358Z,100758.84
2019-05-17T01:30:10.195Z,100762.23
2019-05-17T01:35:16.504Z,100755.45
2019-05-17T01:40:18.554Z,100756.38
2019-05-17T01:45:21.703Z,100752.95
2019-05-17T01:50:30.411Z,100745.91
2019-05-17T01:55:33.141Z,100741.22
2019-05-17T02:00:37.616Z,100739.39
2019-05-17T02:05:40.547Z,100730.56
2019-05-17T02:10:43.301Z,100729.02
2019-05-17T02:15:46.995Z,100726.94
2019-05-17T02:20:49.966Z,100718.23
2019-05-17T02:25:52.705Z,100713.25
2019-05-17T02:30:55.545Z,100708.94
2019-05-17T02:35:58.260Z,100703.27
2019-05-17T02:41:03.301Z,100706.59
2019-05-17T02:46:05.861Z,100695.56
2019-05-17T02:51:08.652Z,100693.80
2019-05-17T02:56:13.386Z,100691.63
2019-05-17T03:01:16.036Z,100688.34
2019-05-17T03:06:18.737Z,100701.96
2019-05-17T03:11:22.617Z,100690.84
2019-05-17T03:16:25.756Z,100688.80
2019-05-17T03:21:28.500Z,100690.77
2019-05-17T03:26:32.848Z,100682.30
2019-05-17T03:31:42.598Z,100689.86
2019-05-17T03:37:53.212Z,100696.50
2019-05-17T03:42:56.225Z,100697.59
2019-05-17T03:47:58.951Z,100694.79
2019-05-17T03:53:02.367Z,100693.70
2019-05-17T03:58:05.385Z,100691.63
2019-05-17T04:03:08.105Z,100693.25
2019-05-17T04:08:13.991Z,100683.19
2019-05-17T04:13:15.539Z,100686.83
2019-05-17T04:18:18.272Z,100682.12
2019-05-17T04:23:23.219Z,100678.76
2019-05-17T04:28:25.713Z,100680.34
2019-05-17T04:33:28.454Z,100677.58
2019-05-17T04:38:33.232Z,100678.89
2019-05-17T04:43:36.249Z,100664.36
2019-05-17T04:48:38.972Z,100674.51
2019-05-17T04:53:43.074Z,100675.11
2019-05-17T04:58:49.962Z,100672.39
2019-05-17T05:03:52.484Z,100671.73
2019-05-17T05:08:55.452Z,100670.73
2019-05-17T05:14:02.459Z,100668.55
2019-05-17T05:19:04.105Z,100659.77
2019-05-17T05:24:06.824Z,100657.95
2019-05-17T05:29:09.529Z,100661.34
2019-05-17T05:34:12.446Z,100660.23
2019-05-17T05:39:15.271Z,100669.81
2019-05-17T05:44:18.018Z,100673.09
2019-05-17T05:49:21.722Z,100674.52
2019-05-17T05:54:24.750Z,100680.31
2019-05-17T05:59:27.467Z,100674.49
2019-05-17T06:04:31.830Z,100676.95
2019-05-17T06:09:35.578Z,100675.22
2019-05-17T06:14:38.286Z,100665.98
2019-05-17T06:19:42.209Z,100668.42
2019-05-17T06:24:45.116Z,100664.91
2019-05-17T06:29:47.829Z,100658.78
2019-05-17T06:34:51.502Z,100665.52
2019-05-17T06:39:54.479Z,100663.81
2019-05-17T06:44:57.236Z,100663.39
2019-05-17T06:50:02.836Z,100659.46
2019-05-17T06:55:05.983Z,100661.33
2019-05-17T07:00:15.688Z,100652.41
2019-05-17T07:05:20.079Z,100659.27
2019-05-17T07:10:23.048Z,100644.02
2019-05-17T07:15:25.781Z,100636.81
2019-05-17T07:20:29.946Z,100635.13
2019-05-17T07:25:32.817Z,100627.69
2019-05-17T07:30:36.682Z,100630.36
2019-05-17T07:35:40.679Z,100628.83
2019-05-17T07:40:44.055Z,100647.72
2019-05-17T07:45:49.623Z,100635.49
2019-05-17T07:50:52.946Z,100635.81
2019-05-17T07:55:56.117Z,100631.56
2019-05-17T08:01:02.480Z,100627.61
2019-05-17T08:06:05.992Z,100618.35
2019-05-17T08:11:10.635Z,100620.28
2019-05-17T08:16:14.598Z,100615.22
2019-05-17T08:21:19.866Z,100616.83
2019-05-17T08:26:23.419Z,100607.20
2019-05-17T08:31:26.643Z,100596.34
2019-05-17T08:36:30.025Z,100601.97
2019-05-17T08:41:32.990Z,100591.57
2019-05-17T08:46:35.719Z,100587.15
2019-05-17T08:51:39.755Z,100581.98
2019-05-17T08:56:43.155Z,100574.88
2019-05-17T09:01:46.850Z,100580.55
2019-05-17T09:06:50.669Z,100572.45
2019-05-17T09:11:53.908Z,100555.23
2019-05-17T09:16:57.024Z,100553.48
2019-05-17T09:22:01.570Z,100557.72
2019-05-17T09:27:05.054Z,100555.54
2019-05-17T09:32:09.524Z,100553.05
2019-05-17T09:37:16.797Z,100554.95
2019-05-17T09:42:20.769Z,100550.13
2019-05-17T09:53:10.700Z,100544.45
2019-05-17T09:58:14.626Z,100526.70
2019-05-17T10:03:23.240Z,100523.47
2019-05-17T10:08:23.179Z,100529.52
2019-05-17T10:13:26.760Z,100526.42
2019-05-17T10:18:30.484Z,100513.09
2019-05-17T10:23:33.714Z,100507.31
2019-05-17T10:28:40.929Z,100516.28
2019-05-17T10:33:44.018Z,100516.86
2019-05-17T10:38:50.132Z,100510.69
2019-05-17T10:43:52.573Z,100511.65
2019-05-17T10:48:55.485Z,100504.69
2019-05-17T10:53:59.971Z,100501.76
2019-05-17T10:59:03.306Z,100513.48
2019-05-17T11:04:06.624Z,100502.26
2019-05-17T11:09:10.396Z,100504.95
2019-05-17T11:14:13.250Z,100503.16
2019-05-17T11:19:15.984Z,100498.64
2019-05-17T11:24:18.734Z,100504.67
2019-05-17T11:29:21.419Z,100501.74
2019-05-17T11:34:25.645Z,100495.70
2019-05-17T11:39:28.576Z,100497.38
2019-05-17T11:44:32.219Z,100491.36
2019-05-17T11:49:39.122Z,100504.14
2019-05-17T11:54:43.347Z,100495.98
2019-05-17T11:59:47.026Z,100492.94
2019-05-17T12:04:50.263Z,100488.02
2019-05-17T12:09:53.872Z,100471.32
2019-05-17T12:14:58.098Z,100472.14
2019-05-17T12:20:02.503Z,100476.09
2019-05-17T12:25:06.209Z,100473.47
2019-05-17T12:30:10.630Z,100471.89
2019-05-17T12:35:13.423Z,100471.84
2019-05-17T12:40:16.247Z,100473.50
2019-05-17T12:45:18.976Z,100468.37
2019-05-17T12:50:21.678Z,100450.36
2019-05-17T12:55:24.380Z,100457.59
2019-05-17T13:00:27.078Z,100463.27
2019-05-17T13:05:29.770Z,100461.85
2019-05-17T13:10:32.470Z,100459.21
2019-05-17T13:15:35.185Z,100455.91
2019-05-17T13:20:37.900Z,100447.88
2019-05-17T13:25:48.107Z,100453.92
2019-05-17T13:30:51.372Z,100456.77
2019-05-17T13:35:54.216Z,100454.08
2019-05-17T13:40:58.982Z,100458.63
2019-05-17T13:46:08.577Z,100447.96
2019-05-17T13:51:11.271Z,100446.97
2019-05-17T13:56:14.013Z,100443.48
2019-05-17T14:01:17.130Z,100436.85
2019-05-17T14:06:19.836Z,100436.13
2019-05-17T14:11:22.653Z,100445.20
2019-05-17T14:16:26.567Z,100445.05
2019-05-17T14:21:31.041Z,100437.30
2019-05-17T14:26:33.735Z,100434.25
2019-05-17T14:31:41.183Z,100438.55
2019-05-17T14:36:46.923Z,100440.05
2019-05-17T14:41:49.717Z,100435.17
2019-05-17T14:46:52.468Z,100426.70
2019-05-17T14:51:55.169Z,100428.66
2019-05-17T14:56:57.853Z,100431.66
2019-05-17T15:02:00.575Z,100435.41
2019-05-17T15:07:04.898Z,100423.09
2019-05-17T15:12:07.653Z,100425.88
2019-05-17T15:17:10.340Z,100436.55
2019-05-17T15:22:17.198Z,100428.64
2019-05-17T15:27:20.043Z,100424.33
2019-05-17T15:32:23.616Z,100425.98
2019-05-17T15:37:26.304Z,100428.98
2019-05-17T15:42:43.620Z,100421.11
2019-05-17T15:47:38.610Z,100418.42
2019-05-17T15:53:03.398Z,100418.12
2019-05-17T15:58:15.916Z,100422.80
2019-05-17T16:03:25.262Z,100419.44
2019-05-17T16:08:31.804Z,100415.31
2019-05-17T16:13:39.311Z,100421.35
2019-05-17T16:18:42.176Z,100415.02
2019-05-17T16:23:45.406Z,100409.48
2019-05-17T16:29:02.482Z,100397.17
2019-05-17T16:34:05.175Z,100400.75
2019-05-17T16:39:08.567Z,100392.16
2019-05-17T16:44:14.240Z,100394.70
2019-05-17T16:49:16.023Z,100395.52
2019-05-17T16:54:18.776Z,100387.34
2019-05-17T16:59:21.460Z,100385.70
2019-05-17T17:04:24.149Z,100387.50
2019-05-17T17:09:26.860Z,100384.03
2019-05-17T17:14:29.535Z,100381.14
2019-05-17T17:19:32.260Z,100378.31
2019-05-17T17:24:34.950Z,100381.73
2019-05-17T17:29:37.635Z,100383.81
2019-05-17T17:34:40.323Z,100383.00
2019-05-17T17:39:43.101Z,100375.42
2019-05-17T17:44:45.861Z,100372.27
2019-05-17T17:49:48.554Z,100373.89
2019-05-17T17:54:51.256Z,100370.42
2019-05-17T17:59:55.609Z,100373.99
2019-05-17T18:04:59.254Z,100373.05
2019-05-17T18:10:02.035Z,100363.84
2019-05-17T18:15:09.656Z,100372.45
2019-05-17T18:20:12.486Z,100371.45
2019-05-17T18:25:15.271Z,100367.92
2019-05-17T18:30:18.062Z,100374.78
2019-05-17T18:35:20.736Z,100376.47
2019-05-17T18:40:23.481Z,100377.17
2019-05-17T18:45:26.466Z,100381.70
2019-05-17T18:50:29.160Z,100381.69
2019-05-17T18:55:32.386Z,100379.39
2019-05-17T19:00:35.173Z,100381.95
2019-05-17T19:05:37.879Z,100375.76
2019-05-17T19:10:40.655Z,100371.80
2019-05-17T19:15:43.981Z,100378.00
2019-05-17T19:20:46.674Z,100380.55
2019-05-17T19:25:49.369Z,100383.37
2019-05-17T19:30:52.055Z,100384.20
2019-05-17T19:35:54.754Z,100390.52
2019-05-17T19:40:57.457Z,100385.22
2019-05-17T19:46:00.346Z,100380.25
2019-05-17T19:51:03.107Z,100377.14
2019-05-17T19:56:05.849Z,100379.10
2019-05-17T20:01:08.544Z,100366.16
2019-05-17T20:06:11.293Z,100360.84
2019-05-17T20:11:14.049Z,100363.84
2019-05-17T20:16:16.749Z,100365.98
2019-05-17T20:21:19.437Z,100372.56
2019-05-17T20:26:22.133Z,100372.30
2019-05-17T20:31:24.849Z,100367.97
2019-05-17T20:36:27.544Z,100373.02
2019-05-17T20:41:30.255Z,100372.06
2019-05-17T20:46:33.000Z,100365.45
2019-05-17T20:51:35.722Z,100369.72
2019-05-17T20:56:38.461Z,100359.94
2019-05-17T21:01:41.210Z,100367.81
2019-05-17T21:06:43.936Z,100366.09
2019-05-17T21:11:46.658Z,100365.34
2019-05-17T21:16:57.311Z,100363.68
2019-05-17T21:22:04.987Z,100360.74
2019-05-17T21:27:07.866Z,100364.09
2019-05-17T21:32:10.562Z,100370.34
2019-05-17T21:37:13.254Z,100369.28
2019-05-17T21:42:15.939Z,100369.65
2019-05-17T21:47:18.668Z,100377.08
2019-05-17T21:52:21.447Z,100369.65
2019-05-17T21:57:24.154Z,100373.83
2019-05-17T22:02:26.858Z,100370.56
2019-05-17T22:07:29.570Z,100368.67
2019-05-17T22:12:32.339Z,100367.30
2019-05-17T22:17:35.027Z,100364.70
2019-05-17T22:22:37.747Z,100357.98
2019-05-17T22:27:40.426Z,100364.07
2019-05-17T22:32:43.400Z,100363.84
2019-05-17T22:37:46.092Z,100355.73
2019-05-17T22:42:48.879Z,100350.27
2019-05-17T22:47:51.595Z,100354.70
2019-05-17T22:52:54.309Z,100351.95
2019-05-17T22:57:57.049Z,100348.14
2019-05-17T23:02:59.770Z,100341.47
2019-05-17T23:08:02.507Z,100340.00
2019-05-17T23:13:05.298Z,100332.34
2019-05-17T23:18:08.084Z,100334.33
2019-05-17T23:23:10.813Z,100321.19
2019-05-17T23:28:13.522Z,100316.66
2019-05-17T23:33:16.235Z,100318.84
2019-05-17T23:38:18.919Z,100315.16
2019-05-17T23:43:21.625Z,100318.30
2019-05-17T23:48:24.363Z,100317.70
2019-05-17T23:53:27.093Z,100320.59
2019-05-17T23:58:29.801Z,100314.83
